Portada
METAR-TAF:

METAR-TAF

Aeropuertos :

Aeropuerto Internacional de La Chinita

Maracaibo, Venezuela

latitud: 10-34N, longitud: 071-44W, altitud: 66 m

METAR: falta

Hora: 21:20 (01:20 UTC)

Pronóstico

El informe se hizo hace 3 horas y 20 minutos, a las 22:00 UTC
Pronóstico válido del 25 a las 00 UTC al 26 a las 00 UTC
Viento 15 kt del oeste-noroeste
Visibilidad 10 km o más
Nubes dispersas a una altura de 1600 ft
Nubes dispersas a una altura de 10000 ft
Evolucionando progresivamente
del 25 a las 01 UTC al 25 a las 05 UTC
Viento 10 kt del norte-noroeste
Visibilidad: 9000 m
Nubes dispersas a una altura de 2000 ft
Cielo nuboso a una altura de 7000 ft
llovizna ligera

TAF: SVMC 242200Z 2500/2600 30015KT 9999 SCT016 SCT100 TX36/18Z TN26/09Z BECMG 2501/2505 34010KT 9000 -DZ SCT020 BKN070

Observaciones y pronósticos meteorológicos de más de 4000 aeropuertos (mensajes METAR y TAF).

Los puntos amarillos y rojos representan las estaciones disponibles.

Ponga el ratón en el punto deseado para ver el nombre de la estación.

Haga clic para ver las observaciones y los pronósticos meteorológicos.

Para cambiar el mapa : haga clic en los botones verdes con una cruz de color negro para hacer un zoom, en el botón verde con un guión para alejar o en las flechas verdes para mapas adyacentes.


METAR-TAF: